Time;durP1;ratioP1;P1;durP2;ratioP2;P2;SDS_P1;SDS_P2;PMS_P1;PMS_P2;Temp;Humidity;BMP_temperature;BMP_pressure;BME280_temperature;BME280_humidity;BME280_pressure;Samples;Min_cycle;Max_cycle;Signal;HPM_P1;HPM_P2
2023/10/21 00:02:26;;;;;;;1.07;0.97;;;13.20;99.90;;;13.92;100.00;95039.44;5069901;28;20551;-81
2023/10/21 00:04:55;;;;;;;1.10;0.97;;;13.30;99.90;;;13.94;100.00;95039.94;5068059;28;20483;-81
2023/10/21 00:07:25;;;;;;;1.10;1.00;;;13.30;99.90;;;13.95;100.00;95046.00;5070521;28;20460;-81
2023/10/21 00:09:56;;;;;;;4.83;0.97;;;13.30;99.90;;;13.94;100.00;95049.66;5070100;28;20509;-81
2023/10/21 00:12:26;;;;;;;0.90;0.80;;;13.30;99.90;;;13.94;100.00;95049.66;5066975;28;20467;-81
2023/10/21 00:14:57;;;;;;;1.20;0.80;;;13.30;99.90;;;13.95;100.00;95053.88;5068244;28;20981;-81
2023/10/21 00:17:29;;;;;;;1.00;0.90;;;13.30;99.90;;;13.95;100.00;95046.75;5071228;28;20460;-80
2023/10/21 00:19:59;;;;;;;1.50;0.90;;;13.30;99.90;;;13.95;100.00;95046.00;5069475;28;20846;-81
2023/10/21 00:22:28;;;;;;;1.00;0.90;;;13.30;99.90;;;13.95;100.00;95046.75;5069451;28;20464;-81
2023/10/21 00:25:00;;;;;;;2.83;1.00;;;13.30;99.90;;;13.94;100.00;95058.34;5068475;28;21202;-81
2023/10/21 00:27:29;;;;;;;1.17;0.80;;;13.30;99.90;;;13.93;100.00;95050.72;5065514;28;20515;-81
2023/10/21 00:29:59;;;;;;;0.90;0.70;;;13.40;99.90;;;13.95;100.00;95053.88;5070014;28;20608;-81
2023/10/21 00:32:29;;;;;;;4.20;1.00;;;13.40;99.90;;;13.95;100.00;95062.50;5065134;28;20567;-81
2023/10/21 00:34:58;;;;;;;0.80;0.70;;;13.40;99.90;;;13.92;100.00;95057.81;5069876;28;20528;-81
2023/10/21 00:37:28;;;;;;;0.97;0.80;;;13.50;99.90;;;13.95;100.00;95051.25;5067278;28;21674;-81
2023/10/21 00:39:57;;;;;;;0.80;0.60;;;13.40;99.90;;;13.94;100.00;95060.97;5065865;28;20456;-81
2023/10/21 00:42:26;;;;;;;0.80;0.70;;;13.50;99.90;;;13.93;100.00;95059.38;5067622;28;20467;-81
2023/10/21 00:44:56;;;;;;;0.90;0.70;;;13.50;99.90;;;13.94;100.00;95065.44;5069852;28;20504;-81
2023/10/21 00:47:27;;;;;;;0.80;0.70;;;13.50;99.90;;;13.94;100.00;95065.44;5068657;28;20460;-81
2023/10/21 00:50:00;;;;;;;0.90;0.70;;;13.40;99.90;;;13.96;100.00;95068.53;5067015;28;20886;-81
2023/10/21 00:52:32;;;;;;;0.80;0.67;;;13.40;99.90;;;13.98;100.00;95072.47;5068578;28;20456;-81
2023/10/21 00:55:03;;;;;;;0.80;0.70;;;13.40;99.90;;;14.00;100.00;95085.31;5068766;28;20915;-81
2023/10/21 00:57:37;;;;;;;1.40;0.77;;;13.40;99.90;;;14.00;100.00;95087.94;5067430;28;20552;-81
2023/10/21 01:00:11;;;;;;;0.87;0.70;;;13.50;99.90;;;14.00;100.00;95093.19;5068226;28;20513;-81
2023/10/21 01:02:42;;;;;;;3.23;0.80;;;13.40;99.90;;;13.99;100.00;95102.13;5067541;28;20505;-81
2023/10/21 01:05:15;;;;;;;4.40;0.80;;;13.40;99.90;;;14.00;100.00;95112.38;5070729;28;20494;-80
2023/10/21 01:07:46;;;;;;;3.97;0.90;;;13.40;99.90;;;13.98;100.00;95116.34;5067173;28;20527;-80
2023/10/21 01:10:15;;;;;;;4.27;0.90;;;13.40;99.90;;;13.97;100.00;95125.28;5067118;28;21080;-81
2023/10/21 01:12:45;;;;;;;1.30;0.67;;;13.40;99.90;;;13.96;100.00;95127.13;5068199;28;20456;-80
2023/10/21 01:15:15;;;;;;;0.80;0.60;;;13.40;99.90;;;13.98;100.00;95134.75;5068547;28;21571;-81
2023/10/21 01:17:52;;;;;;;1.07;0.70;;;13.40;99.90;;;13.99;100.00;95146.81;5067865;28;20456;-81
2023/10/21 01:20:23;;;;;;;1.07;0.80;;;13.40;99.90;;;14.00;100.00;95145.75;5067549;28;20459;-80
2023/10/21 01:22:53;;;;;;;1.20;0.80;;;13.50;99.90;;;14.02;100.00;95148.91;5066774;28;20502;-81
2023/10/21 01:25:23;;;;;;;0.70;0.60;;;13.50;99.90;;;14.02;100.00;95156.78;5065562;28;20495;-81
2023/10/21 01:27:54;;;;;;;4.83;0.90;;;13.50;99.90;;;14.04;100.00;95170.41;5067891;28;20466;-81
2023/10/21 01:30:23;;;;;;;1.00;0.70;;;13.50;99.90;;;14.05;100.00;95177.22;5066757;28;20947;-81
2023/10/21 01:32:54;;;;;;;0.80;0.60;;;13.60;99.90;;;14.06;100.00;95181.41;5067470;28;20529;-80
2023/10/21 01:35:24;;;;;;;1.57;0.70;;;13.60;99.90;;;14.05;100.00;95182.50;5067083;28;20460;-81
2023/10/21 01:37:53;;;;;;;0.80;0.60;;;13.60;99.90;;;14.05;100.00;95190.38;5067048;28;20565;-81
2023/10/21 01:40:24;;;;;;;1.47;0.70;;;13.50;99.90;;;14.05;100.00;95193.00;5066774;28;20519;-80
2023/10/21 01:42:55;;;;;;;0.80;0.60;;;13.60;99.90;;;14.04;100.00;95209.81;5071834;28;20459;-81
2023/10/21 01:45:25;;;;;;;0.80;0.70;;;13.60;99.90;;;14.02;100.00;95215.34;5067266;28;20591;-81
2023/10/21 01:47:54;;;;;;;2.80;0.80;;;13.60;99.90;;;14.01;100.00;95244.53;5067648;28;21006;-81
2023/10/21 01:50:24;;;;;;;0.90;0.70;;;13.60;99.90;;;13.95;100.00;95277.94;5066860;28;20931;-81
2023/10/21 01:52:54;;;;;;;1.00;0.80;;;13.50;99.90;;;13.92;100.00;95293.47;5065645;28;20452;-82
2023/10/21 01:55:25;;;;;;;0.80;0.70;;;13.50;99.90;;;13.94;100.00;95322.91;5066358;28;20460;-77
2023/10/21 01:57:55;;;;;;;0.93;0.80;;;13.50;99.90;;;13.97;100.00;95327.59;5066875;28;20818;-80
2023/10/21 02:00:25;;;;;;;0.90;0.80;;;13.50;99.90;;;13.97;100.00;95340.72;5065884;28;20468;-81
2023/10/21 02:02:55;;;;;;;2.53;0.90;;;13.50;99.90;;;13.97;100.00;95353.88;5067020;28;20464;-81
2023/10/21 02:05:26;;;;;;;3.03;0.90;;;13.50;99.90;;;13.94;100.00;95370.97;5069160;28;21083;-81
2023/10/21 02:07:55;;;;;;;1.17;0.90;;;13.50;99.90;;;13.94;100.00;95373.59;5066583;28;20550;-80
2023/10/21 02:10:25;;;;;;;1.00;0.80;;;13.40;99.90;;;13.95;100.00;95385.66;5068212;28;20464;-81
2023/10/21 02:12:55;;;;;;;1.27;0.80;;;13.40;99.90;;;13.97;100.00;95395.91;5068527;28;20470;-80
2023/10/21 02:15:25;;;;;;;20.73;10.03;;;13.40;99.90;;;13.93;100.00;95400.13;5068173;28;20495;-81
2023/10/21 02:17:55;;;;;;;0.80;0.70;;;13.50;99.90;;;13.94;100.00;95412.22;5068523;28;20452;-81
2023/10/21 02:20:26;;;;;;;2.27;0.70;;;13.50;99.90;;;13.88;100.00;95424.59;5070510;28;20451;-82
2023/10/21 02:22:55;;;;;;;36.67;23.80;;;13.50;99.90;;;13.88;100.00;95435.09;5068121;28;20464;-78
2023/10/21 02:25:27;;;;;;;4.93;3.17;;;13.40;99.90;;;13.91;100.00;95446.91;5064083;28;20522;-81
2023/10/21 02:27:56;;;;;;;0.90;0.73;;;13.40;99.90;;;13.91;100.00;95452.97;5067358;28;20975;-81
2023/10/21 02:30:26;;;;;;;2.60;0.70;;;13.40;99.90;;;13.92;100.00;95456.34;5069814;28;20479;-80
2023/10/21 02:32:56;;;;;;;1.20;0.70;;;13.40;99.90;;;13.89;100.00;95465.56;5069760;28;20459;-81
2023/10/21 02:35:26;;;;;;;0.80;0.70;;;13.30;99.90;;;13.91;100.00;95465.31;5067654;28;20460;-80
2023/10/21 02:37:55;;;;;;;5.60;0.90;;;13.20;99.90;;;13.93;100.00;95484.22;5067104;28;20547;-80
2023/10/21 02:40:26;;;;;;;1.37;0.80;;;13.20;99.90;;;13.93;100.00;95489.47;5068185;28;20478;-80
2023/10/21 02:42:57;;;;;;;7.80;0.80;;;13.30;99.90;;;13.93;100.00;95497.34;5066185;28;20963;-80
2023/10/21 02:45:28;;;;;;;0.93;0.70;;;13.30;99.90;;;13.92;100.00;95496.56;5064864;28;20520;-81
2023/10/21 02:47:58;;;;;;;2.50;0.90;;;13.30;99.90;;;13.91;100.00;95510.78;5063619;28;20543;-81
2023/10/21 02:50:28;;;;;;;1.20;0.70;;;13.30;99.90;;;13.92;100.00;95514.16;5065623;28;20465;-80
2023/10/21 02:52:58;;;;;;;4.80;2.93;;;13.30;99.90;;;13.93;100.00;95513.09;5064241;28;20463;-80
2023/10/21 02:55:29;;;;;;;6.53;0.80;;;13.20;99.90;;;13.91;100.00;95521.28;5063925;28;20557;-80
2023/10/21 02:58:00;;;;;;;3.60;0.90;;;13.30;99.90;;;13.89;100.00;95527.84;5066807;28;20519;-80
2023/10/21 03:00:31;;;;;;;0.90;0.73;;;13.30;99.90;;;13.89;100.00;95527.84;5067138;28;20459;-79
2023/10/21 03:03:00;;;;;;;1.00;0.80;;;13.30;99.90;;;13.90;100.00;95532.84;5063833;28;20843;-80
2023/10/21 03:05:30;;;;;;;2.73;0.80;;;13.30;99.90;;;13.90;100.00;95542.56;5065856;28;20495;-81
2023/10/21 03:07:59;;;;;;;4.80;0.90;;;13.30;99.90;;;13.92;100.00;95537.81;5068312;28;20464;-80
2023/10/21 03:10:31;;;;;;;0.80;0.70;;;13.30;99.90;;;13.91;100.00;95544.13;5067051;28;20491;-80
2023/10/21 03:13:03;;;;;;;1.17;0.80;;;13.30;99.90;;;13.92;100.00;95550.94;5066130;28;20452;-79
2023/10/21 03:15:35;;;;;;;1.10;1.00;;;13.30;99.90;;;13.89;100.00;95556.72;5065228;28;21164;-80
2023/10/21 03:18:08;;;;;;;1.27;0.90;;;13.30;99.90;;;13.91;100.00;95565.16;5064074;28;20496;-80
2023/10/21 03:20:38;;;;;;;1.90;1.10;;;13.30;99.90;;;13.91;100.00;95557.28;5066680;28;20542;-80
2023/10/21 03:23:07;;;;;;;1.63;1.03;;;13.40;99.90;;;13.89;100.00;95562.78;5063127;28;20456;-80
2023/10/21 03:25:38;;;;;;;1.43;0.93;;;13.40;99.90;;;13.90;100.00;95572.25;5063770;28;20499;-81
2023/10/21 03:28:08;;;;;;;9.90;5.40;;;13.40;99.90;;;13.91;100.00;95580.91;5065213;28;20460;-78
2023/10/21 03:30:38;;;;;;;4.20;1.23;;;13.40;99.90;;;13.89;100.00;95578.53;5061815;28;20491;-81
2023/10/21 03:33:08;;;;;;;5.07;1.70;;;13.40;99.90;;;13.94;100.00;95591.66;5063270;28;20532;-81
2023/10/21 03:35:38;;;;;;;2.57;0.80;;;13.40;99.90;;;13.93;100.00;95603.22;5064709;28;20487;-81
2023/10/21 03:38:08;;;;;;;1.77;0.90;;;13.50;99.90;;;13.90;100.00;95603.78;5059922;28;20978;-81
2023/10/21 03:40:39;;;;;;;5.30;1.07;;;13.50;99.90;;;13.90;100.00;95606.41;5062710;28;20476;-78
2023/10/21 03:43:09;;;;;;;1.43;0.97;;;13.50;99.90;;;13.86;100.00;95612.44;5063151;28;20475;-80
2023/10/21 03:45:40;;;;;;;5.93;1.27;;;13.50;99.90;;;13.85;100.00;95616.91;5040948;28;20579;-81
2023/10/21 03:48:09;;;;;;;4.77;0.97;;;13.50;99.90;;;13.88;100.00;95628.75;5021770;28;20462;-80
2023/10/21 03:50:39;;;;;;;4.60;1.23;;;13.40;99.90;;;13.91;100.00;95636.88;5025830;28;20477;-80
2023/10/21 03:53:09;;;;;;;3.60;1.13;;;13.40;99.90;;;13.91;100.00;95641.34;5027653;28;20832;-80
2023/10/21 03:55:42;;;;;;;1.87;1.00;;;13.40;99.90;;;13.92;100.00;95642.91;5027131;28;20538;-80
2023/10/21 03:58:13;;;;;;;1.40;1.27;;;13.40;99.90;;;13.90;100.00;95643.19;5026053;28;20454;-80
2023/10/21 04:00:43;;;;;;;8.93;1.47;;;13.40;99.90;;;13.87;100.00;95650.81;5023308;28;20565;-80
2023/10/21 04:03:13;;;;;;;1.37;0.83;;;13.40;99.90;;;13.92;100.00;95653.41;5026956;28;20547;-80
2023/10/21 04:05:43;;;;;;;1.30;0.97;;;13.40;99.90;;;13.94;100.00;95653.94;5024992;28;20504;-81
2023/10/21 04:08:12;;;;;;;3.03;1.10;;;13.40;99.90;;;13.90;100.00;95658.16;5026934;28;20466;-80
2023/10/21 04:10:45;;;;;;;1.53;1.10;;;13.40;99.90;;;13.90;100.00;95668.66;5031022;28;20469;-80
2023/10/21 04:13:14;;;;;;;1.77;1.10;;;13.40;99.90;;;13.89;100.00;95670.50;5032533;28;20471;-80
2023/10/21 04:15:44;;;;;;;1.53;0.97;;;13.40;99.90;;;13.90;100.00;95668.66;5030557;28;20512;-81
2023/10/21 04:18:14;;;;;;;3.60;1.20;;;13.40;99.90;;;13.92;100.00;95682.31;5029410;28;20887;-79
2023/10/21 04:20:42;;;;;;;5.37;1.40;;;13.40;99.90;;;13.91;100.00;95678.13;5027275;28;20482;-81
2023/10/21 04:23:13;;;;;;;1.13;1.00;;;13.30;99.90;;;13.92;100.00;95687.56;5026259;28;20469;-81
2023/10/21 04:25:44;;;;;;;1.30;1.20;;;13.30;99.90;;;13.91;100.00;95694.69;5028227;28;21067;-81
2023/10/21 04:28:15;;;;;;;1.40;1.07;;;13.30;99.90;;;13.92;100.00;95709.38;5029548;28;20463;-81
2023/10/21 04:30:46;;;;;;;2.63;1.10;;;13.30;99.90;;;13.90;100.00;95719.38;5026837;28;20493;-81
2023/10/21 04:33:16;;;;;;;5.00;1.50;;;13.30;99.90;;;13.88;100.00;95718.06;5024009;28;20710;-80
2023/10/21 04:35:47;;;;;;;1.77;1.00;;;13.40;99.90;;;13.88;100.00;95728.56;5031854;28;20465;-81
2023/10/21 04:38:16;;;;;;;2.07;1.53;;;13.30;99.90;;;13.87;100.00;95727.00;5033392;28;21201;-81
2023/10/21 04:40:49;;;;;;;1.60;1.37;;;13.40;99.90;;;13.88;100.00;95733.84;5032818;28;20546;-81
2023/10/21 04:43:19;;;;;;;2.30;1.10;;;13.40;99.90;;;13.87;100.00;95743.56;5032058;28;20946;-81
2023/10/21 04:45:49;;;;;;;2.50;1.20;;;13.30;99.90;;;13.89;100.00;95740.63;5030847;28;20499;-81
2023/10/21 04:48:18;;;;;;;1.80;1.40;;;13.40;99.90;;;13.87;100.00;95750.63;5030611;28;20552;-81
2023/10/21 04:50:49;;;;;;;6.43;1.53;;;13.30;99.90;;;13.87;100.00;95753.25;5030426;28;20462;-81
2023/10/21 04:53:18;;;;;;;1.80;1.33;;;13.30;99.90;;;13.84;100.00;95757.22;5032561;28;20557;-81
2023/10/21 04:55:49;;;;;;;8.40;1.00;;;13.30;99.90;;;13.83;100.00;95775.84;5032506;28;20899;-81
2023/10/21 04:58:19;;;;;;;1.43;1.10;;;13.30;99.90;;;13.84;100.00;95775.59;5031698;28;20461;-81
2023/10/21 05:00:48;;;;;;;1.70;1.20;;;13.30;99.90;;;13.80;100.00;95776.38;5032494;28;20461;-81
2023/10/21 05:03:19;;;;;;;3.03;1.10;;;13.30;99.90;;;13.73;100.00;95774.03;5032457;28;20462;-81
2023/10/21 05:05:48;;;;;;;2.33;1.17;;;13.20;99.90;;;13.72;100.00;95776.91;5030003;28;20490;-81
2023/10/21 05:08:18;;;;;;;1.70;1.10;;;13.20;99.90;;;13.55;100.00;95804.22;5030712;28;20465;-81
2023/10/21 05:10:50;;;;;;;1.17;0.97;;;13.00;99.90;;;13.52;100.00;95807.34;5029287;28;20553;-81
2023/10/21 05:13:20;;;;;;;1.67;1.07;;;12.90;99.90;;;13.53;100.00;95816.81;5032153;28;20462;-81
2023/10/21 05:15:50;;;;;;;2.37;0.93;;;13.00;99.90;;;13.50;100.00;95813.94;5031932;28;20833;-81
2023/10/21 05:18:23;;;;;;;1.30;1.00;;;13.00;99.90;;;13.45;100.00;95832.28;5031764;28;20495;-81
2023/10/21 05:20:56;;;;;;;1.57;0.83;;;12.90;99.90;;;13.47;100.00;95827.56;5031975;28;20910;-81
2023/10/21 05:23:26;;;;;;;1.60;0.97;;;12.90;99.90;;;13.39;100.00;95828.88;5033562;28;20545;-81
2023/10/21 05:25:58;;;;;;;1.30;0.90;;;12.80;99.90;;;13.38;100.00;95839.63;5029464;28;20468;-81
2023/10/21 05:28:28;;;;;;;3.03;1.00;;;12.80;99.90;;;13.33;100.00;95848.25;5031362;28;20462;-80
2023/10/21 05:30:59;;;;;;;1.37;1.00;;;12.80;99.90;;;13.30;100.00;95858.47;5032786;28;20466;-81
2023/10/21 05:33:30;;;;;;;1.17;0.83;;;12.80;99.90;;;13.30;100.00;95863.72;5032978;28;20469;-81
2023/10/21 05:35:59;;;;;;;1.00;0.90;;;12.80;99.90;;;13.32;100.00;95877.41;5030546;28;20501;-81
2023/10/21 05:38:29;;;;;;;4.73;1.00;;;12.70;99.90;;;13.29;100.00;95889.22;5032137;28;20462;-81
2023/10/21 05:41:00;;;;;;;2.03;0.80;;;12.70;99.90;;;13.25;100.00;95882.91;5033335;28;20957;-81
2023/10/21 05:43:30;;;;;;;1.00;0.80;;;12.70;99.90;;;13.27;100.00;95891.28;5032060;28;20468;-81
2023/10/21 05:46:03;;;;;;;2.50;0.80;;;12.60;99.90;;;13.27;100.00;95906.25;5030479;28;20453;-81
2023/10/21 05:48:33;;;;;;;1.23;0.90;;;12.70;99.90;;;13.25;100.00;95903.91;5030079;28;20461;-81
2023/10/21 05:51:04;;;;;;;1.97;0.97;;;12.60;99.90;;;13.20;100.00;95906.50;5029770;28;20965;-81
2023/10/21 05:53:34;;;;;;;3.53;0.87;;;12.60;99.90;;;13.18;100.00;95910.41;5030221;28;20450;-81
2023/10/21 05:56:12;;;;;;;1.10;0.90;;;12.60;99.90;;;13.18;100.00;95920.91;5029348;28;20462;-81
2023/10/21 05:58:43;;;;;;;2.23;1.20;;;12.50;99.90;;;13.09;100.00;95928.47;5029602;28;20796;-81
2023/10/21 06:01:13;;;;;;;1.00;0.80;;;12.50;99.90;;;13.09;100.00;95941.59;5030257;28;20882;-81
2023/10/21 06:03:43;;;;;;;1.67;0.80;;;12.60;99.90;;;13.08;100.00;95946.00;5029664;28;20539;-81
2023/10/21 06:06:13;;;;;;;1.20;0.70;;;12.50;99.90;;;13.02;100.00;95956.75;5028277;28;20514;-81
2023/10/21 06:08:43;;;;;;;1.43;0.77;;;12.40;99.90;;;13.06;100.00;95981.44;5030033;28;20464;-81
2023/10/21 06:11:14;;;;;;;1.00;0.80;;;12.50;99.90;;;13.04;100.00;95980.91;5028223;28;20573;-81
2023/10/21 06:13:45;;;;;;;1.53;0.70;;;12.50;99.90;;;13.02;100.00;95985.59;5028841;28;20565;-81
2023/10/21 06:16:15;;;;;;;2.63;0.90;;;12.50;99.90;;;12.97;100.00;95999.50;5029546;28;20557;-81
2023/10/21 06:18:45;;;;;;;1.50;0.80;;;12.50;99.90;;;13.02;100.00;96006.59;5029949;28;20468;-81
2023/10/21 06:21:16;;;;;;;1.23;0.77;;;12.50;99.90;;;12.99;100.00;96009.72;5030214;28;20473;-81
2023/10/21 06:23:46;;;;;;;1.57;0.70;;;12.50;99.90;;;12.92;100.00;96019.63;5031307;28;20549;-81
2023/10/21 06:26:18;;;;;;;2.80;0.83;;;12.40;99.90;;;12.89;100.00;96031.44;5032728;28;20467;-81
2023/10/21 06:28:48;;;;;;;1.50;1.00;;;12.30;99.90;;;12.86;100.00;96033.78;5032492;28;20474;-80
2023/10/21 06:31:19;;;;;;;1.40;0.83;;;12.30;99.90;;;12.90;100.00;96040.09;5030910;28;20465;-81
2023/10/21 06:33:50;;;;;;;1.10;0.80;;;12.40;99.90;;;12.88;100.00;96076.25;5029850;28;20457;-81
2023/10/21 06:36:21;;;;;;;1.03;0.73;;;12.40;99.90;;;12.89;100.00;96055.03;5029654;28;20549;-80
2023/10/21 06:38:52;;;;;;;1.83;0.80;;;12.40;99.90;;;12.93;100.00;96057.97;5030017;28;20608;-80
2023/10/21 06:41:24;;;;;;;3.20;0.80;;;12.40;99.90;;;12.93;100.00;96052.72;5029158;28;20604;-80
2023/10/21 06:43:54;;;;;;;1.67;0.90;;;12.30;99.90;;;13.00;100.00;96058.53;5032982;28;20500;-82
2023/10/21 06:46:31;;;;;;;6.10;0.80;;;12.40;99.90;;;13.00;100.00;96064.59;5029267;28;20466;-81
2023/10/21 06:49:06;;;;;;;2.37;0.90;;;12.40;99.90;;;13.01;100.00;96071.41;5029367;28;20457;-81
2023/10/21 06:51:38;;;;;;;2.00;1.00;;;12.50;99.90;;;12.99;100.00;96070.06;5029946;28;20526;-81
2023/10/21 06:54:08;;;;;;;1.27;0.80;;;12.50;99.90;;;13.05;100.00;96079.59;5029433;28;20466;-81
2023/10/21 06:56:39;;;;;;;1.20;0.87;;;12.50;99.90;;;13.07;100.00;96091.41;5028681;28;20572;-81
2023/10/21 06:59:09;;;;;;;1.10;0.90;;;12.50;99.90;;;13.11;100.00;96091.72;5032932;28;20465;-81
2023/10/21 07:01:40;;;;;;;1.40;0.90;;;12.50;99.90;;;13.10;100.00;96095.38;5028713;28;20484;-81
2023/10/21 07:04:10;;;;;;;1.57;0.90;;;12.60;99.90;;;13.03;100.00;96095.56;5029810;28;20540;-80
2023/10/21 07:06:40;;;;;;;1.30;1.00;;;12.50;99.90;;;13.05;100.00;96103.19;5028329;28;20894;-80
2023/10/21 07:09:11;;;;;;;0.97;0.73;;;12.50;99.90;;;13.09;100.00;96114.78;5028211;28;21031;-80
2023/10/21 07:11:43;;;;;;;3.63;1.30;;;12.50;99.90;;;13.08;100.00;96119.19;5026608;28;20474;-81
2023/10/21 07:14:13;;;;;;;4.80;0.80;;;12.50;99.90;;;13.13;100.00;96122.94;5030704;28;20972;-80
2023/10/21 07:16:43;;;;;;;1.83;1.20;;;12.60;99.90;;;13.13;100.00;96125.56;5027862;28;20458;-80
2023/10/21 07:19:13;;;;;;;2.77;0.87;;;12.70;99.90;;;13.12;100.00;96132.66;5027037;28;20964;-80
2023/10/21 07:21:43;;;;;;;1.40;0.90;;;12.60;99.90;;;13.15;100.00;96134.00;5026676;28;20523;-81
2023/10/21 07:24:13;;;;;;;2.17;0.80;;;12.60;99.90;;;13.16;100.00;96151.31;5028815;28;20965;-80
2023/10/21 07:26:45;;;;;;;1.33;1.10;;;12.60;99.90;;;13.18;100.00;96149.25;5028821;28;20549;-81
2023/10/21 07:29:15;;;;;;;9.40;1.00;;;12.60;99.90;;;13.19;100.00;96161.34;5030508;28;20875;-81
2023/10/21 07:31:45;;;;;;;1.03;0.90;;;12.70;99.90;;;13.16;100.00;96164.44;5028017;28;20484;-81
2023/10/21 07:34:15;;;;;;;3.27;1.03;;;12.60;99.90;;;13.22;100.00;96171.34;5027709;28;20532;-81
2023/10/21 07:36:45;;;;;;;3.27;1.10;;;12.70;99.90;;;13.26;100.00;96173.19;5028095;28;20550;-81
2023/10/21 07:39:18;;;;;;;3.83;1.10;;;12.80;99.90;;;13.27;100.00;96180.03;5031944;28;20468;-81
2023/10/21 07:41:49;;;;;;;1.70;0.77;;;12.80;99.90;;;13.23;100.00;96186.81;5030277;28;20474;-80
2023/10/21 07:44:20;;;;;;;4.13;1.20;;;12.70;99.90;;;13.19;100.00;96187.59;5033391;28;21027;-80
2023/10/21 07:46:53;;;;;;;2.27;1.10;;;12.70;99.90;;;13.15;100.00;96187.28;5033908;28;20511;-81
2023/10/21 07:49:24;;;;;;;1.00;0.80;;;12.60;99.90;;;13.22;100.00;96190.50;5031135;28;20484;-81
2023/10/21 07:51:54;;;;;;;2.67;1.00;;;12.70;99.90;;;13.20;100.00;96192.56;5032575;28;20465;-81
2023/10/21 07:54:25;;;;;;;7.00;1.33;;;12.60;99.90;;;13.21;100.00;96186.28;5031414;28;20465;-80
2023/10/21 07:56:55;;;;;;;2.10;1.07;;;12.70;99.90;;;13.26;100.00;96188.94;5029961;28;20986;-81
2023/10/21 07:59:27;;;;;;;2.00;1.10;;;12.70;99.90;;;13.26;100.00;96188.94;5030788;28;20516;-81
2023/10/21 08:01:58;;;;;;;6.43;1.20;;;12.70;99.90;;;13.23;100.00;96192.06;5031258;28;20465;-80
2023/10/21 08:04:32;;;;;;;1.97;0.90;;;12.70;99.90;;;13.21;100.00;96194.16;5032397;28;20469;-80
2023/10/21 08:07:05;;;;;;;4.20;1.27;;;12.70;99.90;;;13.22;100.00;96193.13;5031745;28;20533;-81
2023/10/21 08:09:38;;;;;;;2.33;1.10;;;12.80;99.90;;;13.18;100.00;96196.50;5032943;28;20465;-80
2023/10/21 08:12:10;;;;;;;2.23;1.47;;;12.70;99.90;;;13.20;100.00;96195.19;5032010;28;20465;-80
2023/10/21 08:14:40;;;;;;;9.10;1.00;;;12.70;99.90;;;13.19;100.00;96198.84;5035004;28;20887;-80
2023/10/21 08:17:12;;;;;;;4.87;1.40;;;12.70;99.90;;;13.22;100.00;96193.13;5032308;28;20519;-80
2023/10/21 08:19:43;;;;;;;7.83;1.30;;;12.80;99.90;;;13.22;100.00;96202.84;5031682;28;20457;-80
2023/10/21 08:22:13;;;;;;;2.30;1.00;;;12.70;99.90;;;13.28;100.00;96200.00;5032736;28;20477;-81
2023/10/21 08:24:44;;;;;;;2.40;0.80;;;12.70;99.90;;;13.28;100.00;96202.63;5031862;28;20516;-80
2023/10/21 08:27:16;;;;;;;3.77;1.20;;;12.80;99.90;;;13.29;100.00;96203.41;5033396;28;21388;-80
2023/10/21 08:29:54;;;;;;;1.80;1.00;;;12.70;99.90;;;13.34;100.00;96212.13;5033290;28;20496;-81
2023/10/21 08:32:23;;;;;;;3.93;1.17;;;12.80;99.90;;;13.38;100.00;96220.28;5030379;28;20468;-81
2023/10/21 08:34:52;;;;;;;8.43;1.50;;;12.80;99.90;;;13.27;100.00;96224.66;5031978;28;20489;-80
2023/10/21 08:37:23;;;;;;;5.60;1.27;;;12.60;99.90;;;13.27;100.00;96224.66;5030956;28;20824;-80
2023/10/21 08:39:53;;;;;;;1.87;1.27;;;12.70;99.90;;;13.29;100.00;96227.84;5032457;28;20829;-80
2023/10/21 08:42:29;;;;;;;3.03;1.40;;;12.70;99.90;;;13.34;100.00;96227.88;5031310;28;20462;-80
2023/10/21 08:45:19;;;;;;;6.80;1.20;;;12.80;99.90;;;13.31;100.00;96233.63;5032075;28;20471;-80
2023/10/21 08:47:51;;;;;;;1.30;0.90;;;12.90;99.90;;;13.21;100.00;96238.78;5031838;28;20919;-80
2023/10/21 08:50:21;;;;;;;4.93;1.27;;;12.70;99.90;;;13.27;100.00;96236.97;5030533;28;20454;-80
2023/10/21 08:52:55;;;;;;;1.10;0.90;;;12.80;99.90;;;13.32;100.00;96250.16;5030403;28;21301;-81
2023/10/21 08:55:27;;;;;;;3.53;1.20;;;12.80;99.90;;;13.36;100.00;96246.78;5028932;28;20470;-81
2023/10/21 08:57:57;;;;;;;4.87;1.20;;;12.90;99.90;;;13.40;100.00;96263.63;5029062;28;20474;-81
2023/10/21 09:00:27;;;;;;;1.60;1.10;;;12.90;99.90;;;13.45;100.00;96271.56;5029776;28;20999;-80
2023/10/21 09:02:57;;;;;;;4.33;0.90;;;13.00;99.90;;;13.49;100.00;96271.88;5032252;28;21225;-81
2023/10/21 09:05:28;;;;;;;3.67;1.33;;;13.00;99.90;;;13.51;100.00;96283.69;5032240;28;20457;-80
2023/10/21 09:07:58;;;;;;;3.73;1.17;;;12.90;99.90;;;13.51;100.00;96280.28;5032782;28;20902;-81
2023/10/21 09:10:30;;;;;;;2.83;1.20;;;12.90;99.90;;;13.60;100.00;96287.47;5030132;28;20462;-80
2023/10/21 09:13:15;;;;;;;2.30;0.90;;;13.00;99.90;;;13.57;100.00;96287.19;5029514;28;20450;-80
2023/10/21 09:15:45;;;;;;;3.23;1.40;;;13.00;99.90;;;13.56;100.00;96289.00;5031790;28;20970;-81
2023/10/21 09:18:16;;;;;;;6.83;1.20;;;13.00;99.90;;;13.60;100.00;96297.19;5030892;28;20465;-81
2023/10/21 09:20:50;;;;;;;7.33;1.37;;;13.10;99.90;;;13.57;100.00;96311.59;5030819;28;20497;-81
2023/10/21 09:23:21;;;;;;;2.27;1.37;;;13.10;99.90;;;13.57;100.00;96302.94;5033055;28;21144;-81
2023/10/21 09:25:51;;;;;;;2.20;1.30;;;13.10;99.90;;;13.54;100.00;96304.19;5029633;28;20474;-81
2023/10/21 09:28:24;;;;;;;3.57;1.30;;;13.10;99.90;;;13.58;100.00;96296.63;5030039;28;20496;-81
2023/10/21 09:30:59;;;;;;;1.20;1.00;;;13.10;99.90;;;13.63;100.00;96303.75;5029718;28;20895;-81
2023/10/21 09:33:30;;;;;;;4.10;1.30;;;13.10;99.90;;;13.60;100.00;96305.84;5031263;28;20857;-83
2023/10/21 09:36:04;;;;;;;5.97;1.37;;;13.10;99.90;;;13.64;100.00;96305.34;5031505;28;20969;-81
2023/10/21 09:38:54;;;;;;;2.40;1.50;;;13.00;99.90;;;13.72;100.00;96307.50;5032547;28;20469;-80
2023/10/21 09:41:26;;;;;;;4.93;1.27;;;13.10;99.90;;;13.70;100.00;96305.16;5029634;28;20481;-81
2023/10/21 09:44:00;;;;;;;2.50;0.97;;;13.20;99.90;;;13.67;100.00;96320.63;5029601;28;20458;-81
2023/10/21 09:46:34;;;;;;;2.37;1.23;;;13.00;99.90;;;13.73;100.00;96330.91;5029142;28;20466;-81
2023/10/21 09:49:06;;;;;;;1.67;1.00;;;13.10;99.90;;;13.75;100.00;96333.28;5030327;28;20540;-81
2023/10/21 09:51:48;;;;;;;4.27;1.53;;;13.20;99.90;;;13.81;100.00;96338.34;5028939;28;20494;-81
2023/10/21 09:54:33;;;;;;;4.70;1.40;;;13.20;99.90;;;13.83;100.00;96345.97;5029826;28;20470;-81
2023/10/21 09:57:08;;;;;;;2.87;1.20;;;13.30;99.90;;;13.85;100.00;96343.91;5029887;28;20472;-81
2023/10/21 09:59:40;;;;;;;4.40;1.00;;;13.30;99.90;;;13.82;100.00;96349.63;5027703;28;20457;-81
2023/10/21 10:02:13;;;;;;;5.07;1.50;;;13.20;99.90;;;13.82;100.00;96350.44;5029228;28;20555;-81
2023/10/21 10:04:43;;;;;;;5.90;1.17;;;13.20;99.90;;;13.88;100.00;96353.91;5032495;28;20554;-81
2023/10/21 10:07:13;;;;;;;3.70;1.10;;;13.30;99.90;;;13.94;100.00;96347.66;5032731;28;20474;-81
2023/10/21 10:09:58;;;;;;;4.27;1.30;;;13.30;99.90;;;13.98;100.00;96346.91;5027744;28;20500;-81
2023/10/21 10:12:37;;;;;;;6.60;1.57;;;13.40;99.90;;;14.00;100.00;96354.53;5028265;28;20575;-81
2023/10/21 10:15:32;;;;;;;3.67;1.10;;;13.40;99.90;;;14.03;100.00;96343.50;5031015;28;20987;-81
2023/10/21 10:18:04;;;;;;;3.27;1.60;;;13.40;99.90;;;14.15;100.00;96352.03;5030711;28;21004;-81
2023/10/21 10:20:33;;;;;;;4.37;1.10;;;13.60;99.90;;;14.19;100.00;96347.88;5031623;28;20462;-81
2023/10/21 10:23:08;;;;;;;3.30;1.20;;;13.70;99.90;;;14.17;100.00;96355.19;5031576;28;20465;-81
2023/10/21 10:25:39;;;;;;;2.43;1.20;;;13.60;99.90;;;14.17;100.00;96363.09;5032208;28;20462;-82
2023/10/21 10:28:12;;;;;;;3.50;1.23;;;13.60;99.90;;;14.23;100.00;96361.31;5034336;28;20470;-81
2023/10/21 10:30:44;;;;;;;4.70;1.30;;;13.70;99.90;;;14.25;100.00;96346.06;5031820;28;21085;-81